createdAt,value
2022-11-17T00:42:10.668Z,3.84
2022-11-17T00:45:13.471Z,3.34
2022-11-17T00:50:57.649Z,3.34
2022-11-17T00:53:29.144Z,3.33
2022-11-17T02:00:41.931Z,3.33
2022-11-17T02:03:27.151Z,3.02
2022-11-17T02:06:09.559Z,3.07
2022-11-17T02:08:42.991Z,2.94
2022-11-17T02:11:14.454Z,3.23
2022-11-17T02:13:41.614Z,3.15
2022-11-17T02:16:19.462Z,3.02
2022-11-17T02:20:08.227Z,3.45
2022-11-17T02:30:19.667Z,3.21
2022-11-17T02:32:46.496Z,3.56
2022-11-17T02:35:22.141Z,3.21
2022-11-17T02:59:51.333Z,2.80
2022-11-17T03:02:49.367Z,3.41
2022-11-17T03:06:03.931Z,3.00
2022-11-17T03:14:17.801Z,2.76
2022-11-17T03:17:07.666Z,2.69
2022-11-17T03:20:26.977Z,2.74
2022-11-17T03:41:13.409Z,3.25
2022-11-17T03:43:50.157Z,3.33
2022-11-17T03:46:52.890Z,2.80
2022-11-17T03:53:16.233Z,2.87
2022-11-17T03:56:15.927Z,3.10
2022-11-17T04:02:11.264Z,2.83
2022-11-17T04:05:11.091Z,2.98
2022-11-17T04:08:03.758Z,2.80
2022-11-17T04:18:04.731Z,3.20
2022-11-17T04:20:50.124Z,2.88
2022-11-17T04:27:55.003Z,3.43
2022-11-17T04:30:26.171Z,3.17
2022-11-17T04:32:53.069Z,3.05
2022-11-17T04:36:26.252Z,3.27
2022-11-17T04:39:29.059Z,2.93
2022-11-17T04:42:19.723Z,3.43
2022-11-17T04:45:23.598Z,3.10
2022-11-17T04:48:01.797Z,2.87
2022-11-17T05:16:58.519Z,2.85
2022-11-17T13:44:49.229Z,4.26
2022-11-17T13:51:31.805Z,3.95
2022-11-17T14:06:12.308Z,4.12
2022-11-17T14:09:17.271Z,4.03
2022-11-17T14:17:05.102Z,4.01
2022-11-17T14:27:11.417Z,3.76
2022-11-17T15:02:37.948Z,3.39
2022-11-17T15:05:33.889Z,3.38
2022-11-17T15:15:36.768Z,3.26
2022-11-17T15:18:15.044Z,3.38
2022-11-17T15:20:42.261Z,3.31
2022-11-17T15:23:42.429Z,3.28
2022-11-17T15:38:16.418Z,3.38
2022-11-17T15:44:44.362Z,3.61
2022-11-17T16:58:56.326Z,2.89
2022-11-17T17:05:15.805Z,2.94
2022-11-17T17:10:59.150Z,2.79
2022-11-17T17:14:07.388Z,2.85
2022-11-17T17:16:42.405Z,2.85
2022-11-17T17:23:43.107Z,2.90
2022-11-17T17:26:39.597Z,2.65
2022-11-17T17:29:28.335Z,2.60
2022-11-17T17:31:59.603Z,2.67
2022-11-17T17:34:30.201Z,2.82
2022-11-17T17:37:04.112Z,2.66
2022-11-17T17:39:35.361Z,2.85
2022-11-17T17:42:06.882Z,2.92
2022-11-17T17:44:40.529Z,2.95
2022-11-17T17:52:13.931Z,2.73
2022-11-17T17:55:17.521Z,2.54
2022-11-17T17:58:03.289Z,2.40
2022-11-17T18:00:59.598Z,2.71
2022-11-17T18:04:05.569Z,2.33
2022-11-17T18:07:12.002Z,2.42
2022-11-17T18:09:42.784Z,2.49
2022-11-17T18:12:14.415Z,2.48
2022-11-17T18:14:44.003Z,2.50
2022-11-17T18:17:12.214Z,2.54
2022-11-17T18:23:41.137Z,2.82
2022-11-17T18:27:06.022Z,2.34
2022-11-17T18:34:01.024Z,2.51
2022-11-17T18:36:35.420Z,2.72
2022-11-17T18:39:02.411Z,2.52
2022-11-17T18:41:34.907Z,2.50
2022-11-17T21:20:11.189Z,1.62
2022-11-17T21:23:01.665Z,1.67
2022-11-17T21:26:14.250Z,1.82
2022-11-17T21:29:04.808Z,1.59
2022-11-17T21:31:43.073Z,1.50
2022-11-17T21:34:30.239Z,1.63
2022-11-17T21:37:26.183Z,1.61
2022-11-17T21:40:02.493Z,1.56
2022-11-17T21:42:43.905Z,1.60
2022-11-17T21:45:43.592Z,1.60
2022-11-17T21:48:10.327Z,1.45
2022-11-17T21:50:43.212Z,1.36
2022-11-17T21:53:09.736Z,1.37
2022-11-17T21:55:38.233Z,1.66
2022-11-17T21:58:10.227Z,1.35
2022-11-17T22:00:50.365Z,1.74
2022-11-17T22:03:42.227Z,1.51
2022-11-17T22:06:11.055Z,1.79
2022-11-17T22:08:50.822Z,1.71
2022-11-17T22:11:35.578Z,1.64
2022-11-17T22:14:14.135Z,1.75
2022-11-17T22:16:46.309Z,1.56
2022-11-17T22:19:53.703Z,1.37
2022-11-17T22:22:31.964Z,1.17
2022-11-17T22:25:11.442Z,1.65
2022-11-17T22:30:52.367Z,1.70
2022-11-17T22:33:20.481Z,1.58
2022-11-17T22:35:58.078Z,1.34
2022-11-17T22:38:37.567Z,1.24
2022-11-17T22:41:55.477Z,1.63
2022-11-17T22:44:33.253Z,1.63
2022-11-17T22:55:29.944Z,1.36
2022-11-17T22:58:04.033Z,1.13
2022-11-17T23:00:33.048Z,0.93
2022-11-17T23:03:13.631Z,1.17
2022-11-17T23:05:40.296Z,1.14
2022-11-17T23:08:09.691Z,1.56
2022-11-17T23:11:34.926Z,1.40
2022-11-17T23:14:38.981Z,1.04
2022-11-17T23:17:13.271Z,0.81
2022-11-17T23:19:39.867Z,1.08
2022-11-17T23:22:06.273Z,1.48
2022-11-17T23:24:32.790Z,1.23
2022-11-17T23:26:59.324Z,1.20
2022-11-17T23:29:25.823Z,1.35
2022-11-17T23:31:52.765Z,1.24
2022-11-17T23:34:19.590Z,1.17
2022-11-17T23:36:46.654Z,1.27
2022-11-17T23:39:13.366Z,1.24
2022-11-17T23:41:42.753Z,0.96
2022-11-17T23:44:09.363Z,1.38
2022-11-17T23:46:35.856Z,1.37
2022-11-17T23:49:03.132Z,0.86
2022-11-17T23:51:30.143Z,1.22
2022-11-17T23:54:01.519Z,1.04
2022-11-17T23:56:31.764Z,1.36
2022-11-17T23:59:05.885Z,1.07
